sensor_id;sensor_type;location;lat;lon;timestamp;temperature;humidity
43227;DHT22;28839;52.404;9.808;2023-11-21T00:04:09;8.00;99.90
43227;DHT22;28839;52.404;9.808;2023-11-21T00:11:03;8.00;99.90
43227;DHT22;28839;52.404;9.808;2023-11-21T00:18:00;8.00;99.90
43227;DHT22;28839;52.404;9.808;2023-11-21T00:24:53;7.90;99.90
43227;DHT22;28839;52.404;9.808;2023-11-21T00:31:47;8.20;99.90
43227;DHT22;28839;52.404;9.808;2023-11-21T00:38:42;8.20;99.90
43227;DHT22;28839;52.404;9.808;2023-11-21T00:45:36;8.20;99.90
43227;DHT22;28839;52.404;9.808;2023-11-21T00:52:30;8.20;99.90
43227;DHT22;28839;52.404;9.808;2023-11-21T00:59:25;8.10;99.90
43227;DHT22;28839;52.404;9.808;2023-11-21T01:06:18;8.10;99.90
43227;DHT22;28839;52.404;9.808;2023-11-21T01:13:13;8.10;99.90
43227;DHT22;28839;52.404;9.808;2023-11-21T01:20:10;8.20;99.90
43227;DHT22;28839;52.404;9.808;2023-11-21T01:27:05;8.30;99.90
43227;DHT22;28839;52.404;9.808;2023-11-21T01:33:59;8.30;99.90
43227;DHT22;28839;52.404;9.808;2023-11-21T01:40:54;8.30;99.90
43227;DHT22;28839;52.404;9.808;2023-11-21T01:47:48;8.30;99.90
43227;DHT22;28839;52.404;9.808;2023-11-21T01:54:42;8.30;99.90
43227;DHT22;28839;52.404;9.808;2023-11-21T02:01:37;8.20;99.90
43227;DHT22;28839;52.404;9.808;2023-11-21T02:08:31;8.30;99.90
43227;DHT22;28839;52.404;9.808;2023-11-21T02:15:25;8.10;99.90
43227;DHT22;28839;52.404;9.808;2023-11-21T02:22:22;8.10;99.90
43227;DHT22;28839;52.404;9.808;2023-11-21T02:29:20;8.10;99.90
43227;DHT22;28839;52.404;9.808;2023-11-21T02:36:14;8.20;99.90
43227;DHT22;28839;52.404;9.808;2023-11-21T02:43:08;8.20;99.90
43227;DHT22;28839;52.404;9.808;2023-11-21T02:50:04;8.20;99.90
43227;DHT22;28839;52.404;9.808;2023-11-21T02:56:58;8.10;99.90
43227;DHT22;28839;52.404;9.808;2023-11-21T03:03:52;8.10;99.90
43227;DHT22;28839;52.404;9.808;2023-11-21T03:10:49;8.10;99.90
43227;DHT22;28839;52.404;9.808;2023-11-21T03:17:42;8.10;99.90
43227;DHT22;28839;52.404;9.808;2023-11-21T03:24:36;8.20;99.90
43227;DHT22;28839;52.404;9.808;2023-11-21T03:31:31;8.20;99.90
43227;DHT22;28839;52.404;9.808;2023-11-21T03:38:25;8.20;99.90
43227;DHT22;28839;52.404;9.808;2023-11-21T03:45:19;8.30;99.90
43227;DHT22;28839;52.404;9.808;2023-11-21T03:52:14;8.30;99.90
43227;DHT22;28839;52.404;9.808;2023-11-21T03:59:08;8.20;99.90
43227;DHT22;28839;52.404;9.808;2023-11-21T04:06:02;8.20;99.90
43227;DHT22;28839;52.404;9.808;2023-11-21T04:12:57;8.20;99.90
43227;DHT22;28839;52.404;9.808;2023-11-21T04:19:51;8.30;99.90
43227;DHT22;28839;52.404;9.808;2023-11-21T04:26:45;8.20;99.90
43227;DHT22;28839;52.404;9.808;2023-11-21T04:33:40;8.20;99.90
43227;DHT22;28839;52.404;9.808;2023-11-21T04:40:34;8.20;99.90
43227;DHT22;28839;52.404;9.808;2023-11-21T04:47:28;8.20;99.90
43227;DHT22;28839;52.404;9.808;2023-11-21T04:54:23;8.30;99.90
43227;DHT22;28839;52.404;9.808;2023-11-21T05:01:16;8.20;99.90
43227;DHT22;28839;52.404;9.808;2023-11-21T05:08:10;8.20;99.90
43227;DHT22;28839;52.404;9.808;2023-11-21T05:15:06;8.20;99.90
43227;DHT22;28839;52.404;9.808;2023-11-21T05:22:02;8.30;99.90
43227;DHT22;28839;52.404;9.808;2023-11-21T05:28:56;8.20;99.90
43227;DHT22;28839;52.404;9.808;2023-11-21T05:35:51;8.20;99.90
43227;DHT22;28839;52.404;9.808;2023-11-21T05:42:45;8.20;99.90
43227;DHT22;28839;52.404;9.808;2023-11-21T05:49:39;8.20;99.90
43227;DHT22;28839;52.404;9.808;2023-11-21T05:56:34;8.10;99.90
43227;DHT22;28839;52.404;9.808;2023-11-21T06:03:28;8.20;99.90
43227;DHT22;28839;52.404;9.808;2023-11-21T06:10:23;8.10;99.90
43227;DHT22;28839;52.404;9.808;2023-11-21T06:17:18;8.10;99.90
43227;DHT22;28839;52.404;9.808;2023-11-21T06:24:12;8.10;99.90
43227;DHT22;28839;52.404;9.808;2023-11-21T06:31:07;8.10;99.90
43227;DHT22;28839;52.404;9.808;2023-11-21T06:38:04;7.40;99.90
43227;DHT22;28839;52.404;9.808;2023-11-21T06:44:58;7.10;99.90
43227;DHT22;28839;52.404;9.808;2023-11-21T06:51:52;6.80;99.90
43227;DHT22;28839;52.404;9.808;2023-11-21T06:58:47;6.80;99.90
43227;DHT22;28839;52.404;9.808;2023-11-21T07:05:42;6.70;99.90
43227;DHT22;28839;52.404;9.808;2023-11-21T07:12:35;6.60;99.90
43227;DHT22;28839;52.404;9.808;2023-11-21T07:19:30;6.70;99.90
43227;DHT22;28839;52.404;9.808;2023-11-21T07:26:24;6.50;99.90
43227;DHT22;28839;52.404;9.808;2023-11-21T07:33:18;6.50;99.90
43227;DHT22;28839;52.404;9.808;2023-11-21T07:40:14;6.40;99.90
43227;DHT22;28839;52.404;9.808;2023-11-21T07:47:09;6.40;99.90
43227;DHT22;28839;52.404;9.808;2023-11-21T07:54:03;6.40;99.90
43227;DHT22;28839;52.404;9.808;2023-11-21T08:00:59;6.30;99.90
43227;DHT22;28839;52.404;9.808;2023-11-21T08:07:53;6.40;99.90
43227;DHT22;28839;52.404;9.808;2023-11-21T08:14:46;6.30;99.90
43227;DHT22;28839;52.404;9.808;2023-11-21T08:21:41;6.30;99.90
43227;DHT22;28839;52.404;9.808;2023-11-21T08:28:35;6.30;99.90
43227;DHT22;28839;52.404;9.808;2023-11-21T08:35:29;6.40;99.90
43227;DHT22;28839;52.404;9.808;2023-11-21T08:42:24;6.40;99.90
43227;DHT22;28839;52.404;9.808;2023-11-21T08:49:22;6.50;99.90
43227;DHT22;28839;52.404;9.808;2023-11-21T08:56:16;6.60;99.90
43227;DHT22;28839;52.404;9.808;2023-11-21T09:03:12;6.60;99.90
43227;DHT22;28839;52.404;9.808;2023-11-21T09:10:07;7.00;99.90
43227;DHT22;28839;52.404;9.808;2023-11-21T09:17:01;6.80;99.90
43227;DHT22;28839;52.404;9.808;2023-11-21T09:23:57;6.80;99.90
43227;DHT22;28839;52.404;9.808;2023-11-21T09:30:50;6.80;99.90
43227;DHT22;28839;52.404;9.808;2023-11-21T09:37:44;6.70;99.90
43227;DHT22;28839;52.404;9.808;2023-11-21T09:44:45;6.60;99.90
43227;DHT22;28839;52.404;9.808;2023-11-21T09:51:42;6.70;99.90
43227;DHT22;28839;52.404;9.808;2023-11-21T09:58:37;6.90;99.90
43227;DHT22;28839;52.404;9.808;2023-11-21T10:05:32;6.80;99.90
43227;DHT22;28839;52.404;9.808;2023-11-21T10:12:27;6.70;99.90
43227;DHT22;28839;52.404;9.808;2023-11-21T10:19:22;6.90;99.90
43227;DHT22;28839;52.404;9.808;2023-11-21T10:26:18;7.10;99.90
43227;DHT22;28839;52.404;9.808;2023-11-21T10:33:13;6.90;99.90
43227;DHT22;28839;52.404;9.808;2023-11-21T10:40:08;6.80;99.90
43227;DHT22;28839;52.404;9.808;2023-11-21T10:47:08;6.80;99.90
43227;DHT22;28839;52.404;9.808;2023-11-21T10:54:04;6.80;99.90
43227;DHT22;28839;52.404;9.808;2023-11-21T11:00:58;6.90;99.90
43227;DHT22;28839;52.404;9.808;2023-11-21T11:07:58;6.80;99.90
43227;DHT22;28839;52.404;9.808;2023-11-21T11:14:53;6.80;99.90
43227;DHT22;28839;52.404;9.808;2023-11-21T11:22:08;7.00;99.90
43227;DHT22;28839;52.404;9.808;2023-11-21T11:29:13;7.00;99.90
43227;DHT22;28839;52.404;9.808;2023-11-21T11:36:13;7.50;99.90
43227;DHT22;28839;52.404;9.808;2023-11-21T11:43:10;7.30;99.90
43227;DHT22;28839;52.404;9.808;2023-11-21T11:50:06;7.40;99.90
43227;DHT22;28839;52.404;9.808;2023-11-21T11:57:05;7.20;99.90
43227;DHT22;28839;52.404;9.808;2023-11-21T12:04:23;7.10;99.90
43227;DHT22;28839;52.404;9.808;2023-11-21T12:11:30;7.10;99.90
43227;DHT22;28839;52.404;9.808;2023-11-21T12:18:24;7.30;99.90
43227;DHT22;28839;52.404;9.808;2023-11-21T12:25:21;7.20;99.90
43227;DHT22;28839;52.404;9.808;2023-11-21T12:32:16;7.20;99.90
43227;DHT22;28839;52.404;9.808;2023-11-21T12:39:11;7.20;99.90
43227;DHT22;28839;52.404;9.808;2023-11-21T12:46:05;7.20;99.90
43227;DHT22;28839;52.404;9.808;2023-11-21T12:53:03;7.40;99.90
43227;DHT22;28839;52.404;9.808;2023-11-21T12:59:57;7.40;99.90
43227;DHT22;28839;52.404;9.808;2023-11-21T13:06:52;7.30;99.90
43227;DHT22;28839;52.404;9.808;2023-11-21T13:13:51;7.20;99.90
43227;DHT22;28839;52.404;9.808;2023-11-21T13:20:46;7.10;99.90
43227;DHT22;28839;52.404;9.808;2023-11-21T13:27:40;7.20;99.90
43227;DHT22;28839;52.404;9.808;2023-11-21T13:34:36;7.10;99.90
43227;DHT22;28839;52.404;9.808;2023-11-21T13:41:31;7.00;99.90
43227;DHT22;28839;52.404;9.808;2023-11-21T13:48:25;7.20;99.90
43227;DHT22;28839;52.404;9.808;2023-11-21T13:55:26;6.90;99.90
43227;DHT22;28839;52.404;9.808;2023-11-21T14:02:20;6.90;99.90
43227;DHT22;28839;52.404;9.808;2023-11-21T14:09:21;6.80;99.90
43227;DHT22;28839;52.404;9.808;2023-11-21T14:16:19;6.70;99.90
43227;DHT22;28839;52.404;9.808;2023-11-21T14:23:14;6.80;99.90
43227;DHT22;28839;52.404;9.808;2023-11-21T14:30:08;6.80;99.90
43227;DHT22;28839;52.404;9.808;2023-11-21T14:37:06;6.60;99.90
43227;DHT22;28839;52.404;9.808;2023-11-21T14:44:00;6.60;99.90
43227;DHT22;28839;52.404;9.808;2023-11-21T14:50:56;6.50;99.90
43227;DHT22;28839;52.404;9.808;2023-11-21T14:58:05;6.50;99.90
43227;DHT22;28839;52.404;9.808;2023-11-21T15:05:03;6.40;99.90
43227;DHT22;28839;52.404;9.808;2023-11-21T15:11:59;6.30;99.90
43227;DHT22;28839;52.404;9.808;2023-11-21T15:19:03;6.40;99.90
43227;DHT22;28839;52.404;9.808;2023-11-21T15:25:57;6.30;99.90
43227;DHT22;28839;52.404;9.808;2023-11-21T15:32:51;6.10;99.90
43227;DHT22;28839;52.404;9.808;2023-11-21T15:39:47;6.10;99.90
43227;DHT22;28839;52.404;9.808;2023-11-21T15:46:41;6.00;99.90
43227;DHT22;28839;52.404;9.808;2023-11-21T15:53:35;6.10;99.90
43227;DHT22;28839;52.404;9.808;2023-11-21T16:00:30;6.00;99.90
43227;DHT22;28839;52.404;9.808;2023-11-21T16:07:23;6.00;99.90
43227;DHT22;28839;52.404;9.808;2023-11-21T16:14:17;6.10;99.90
43227;DHT22;28839;52.404;9.808;2023-11-21T16:21:13;6.10;99.90
43227;DHT22;28839;52.404;9.808;2023-11-21T16:28:07;6.10;99.90
43227;DHT22;28839;52.404;9.808;2023-11-21T16:35:01;6.00;99.90
43227;DHT22;28839;52.404;9.808;2023-11-21T16:41:57;5.90;99.90
43227;DHT22;28839;52.404;9.808;2023-11-21T16:48:51;5.80;99.90
43227;DHT22;28839;52.404;9.808;2023-11-21T16:55:44;5.80;99.90
43227;DHT22;28839;52.404;9.808;2023-11-21T17:02:40;5.80;99.90
43227;DHT22;28839;52.404;9.808;2023-11-21T17:09:33;5.80;99.90
43227;DHT22;28839;52.404;9.808;2023-11-21T17:16:27;5.90;99.90
43227;DHT22;28839;52.404;9.808;2023-11-21T17:23:22;5.70;99.90
43227;DHT22;28839;52.404;9.808;2023-11-21T17:30:16;5.70;99.90
43227;DHT22;28839;52.404;9.808;2023-11-21T17:37:11;5.70;99.90
43227;DHT22;28839;52.404;9.808;2023-11-21T17:44:07;5.70;99.90
43227;DHT22;28839;52.404;9.808;2023-11-21T17:51:00;5.70;99.90
43227;DHT22;28839;52.404;9.808;2023-11-21T17:57:54;5.60;99.90
43227;DHT22;28839;52.404;9.808;2023-11-21T18:04:50;5.60;99.90
43227;DHT22;28839;52.404;9.808;2023-11-21T18:11:43;5.60;99.90
43227;DHT22;28839;52.404;9.808;2023-11-21T18:18:37;5.60;99.90
43227;DHT22;28839;52.404;9.808;2023-11-21T18:25:32;5.70;99.90
43227;DHT22;28839;52.404;9.808;2023-11-21T18:32:26;5.50;99.90
43227;DHT22;28839;52.404;9.808;2023-11-21T18:39:20;5.50;99.90
43227;DHT22;28839;52.404;9.808;2023-11-21T18:46:15;5.50;99.90
43227;DHT22;28839;52.404;9.808;2023-11-21T18:53:09;5.50;99.90
43227;DHT22;28839;52.404;9.808;2023-11-21T19:00:04;5.60;99.90
43227;DHT22;28839;52.404;9.808;2023-11-21T19:07:05;5.50;99.90
43227;DHT22;28839;52.404;9.808;2023-11-21T19:13:59;5.50;99.90
43227;DHT22;28839;52.404;9.808;2023-11-21T19:20:54;5.50;99.90
43227;DHT22;28839;52.404;9.808;2023-11-21T19:27:49;5.40;99.90
43227;DHT22;28839;52.404;9.808;2023-11-21T19:34:43;5.40;99.90
43227;DHT22;28839;52.404;9.808;2023-11-21T19:41:37;5.50;99.90
43227;DHT22;28839;52.404;9.808;2023-11-21T19:48:32;5.30;99.90
43227;DHT22;28839;52.404;9.808;2023-11-21T19:55:27;5.20;99.90
43227;DHT22;28839;52.404;9.808;2023-11-21T20:02:21;5.20;99.90
43227;DHT22;28839;52.404;9.808;2023-11-21T20:09:16;5.00;99.90
43227;DHT22;28839;52.404;9.808;2023-11-21T20:16:10;5.00;99.90
43227;DHT22;28839;52.404;9.808;2023-11-21T20:23:04;5.00;99.90
43227;DHT22;28839;52.404;9.808;2023-11-21T20:29:59;4.90;99.90
43227;DHT22;28839;52.404;9.808;2023-11-21T20:36:53;5.00;99.90
43227;DHT22;28839;52.404;9.808;2023-11-21T20:43:47;4.80;99.90
43227;DHT22;28839;52.404;9.808;2023-11-21T20:50:42;4.60;99.90
43227;DHT22;28839;52.404;9.808;2023-11-21T20:57:36;4.70;99.90
43227;DHT22;28839;52.404;9.808;2023-11-21T21:04:30;4.70;99.90
43227;DHT22;28839;52.404;9.808;2023-11-21T21:11:26;4.70;99.90
43227;DHT22;28839;52.404;9.808;2023-11-21T21:18:23;4.60;99.90
43227;DHT22;28839;52.404;9.808;2023-11-21T21:25:19;4.50;99.90
43227;DHT22;28839;52.404;9.808;2023-11-21T21:32:14;4.50;99.90
43227;DHT22;28839;52.404;9.808;2023-11-21T21:39:08;4.50;99.90
43227;DHT22;28839;52.404;9.808;2023-11-21T21:46:03;4.40;99.90
43227;DHT22;28839;52.404;9.808;2023-11-21T21:52:58;4.30;99.90
43227;DHT22;28839;52.404;9.808;2023-11-21T21:59:52;4.30;99.90
43227;DHT22;28839;52.404;9.808;2023-11-21T22:06:46;4.20;99.90
43227;DHT22;28839;52.404;9.808;2023-11-21T22:13:42;4.10;99.90
43227;DHT22;28839;52.404;9.808;2023-11-21T22:20:35;3.90;99.90
43227;DHT22;28839;52.404;9.808;2023-11-21T22:27:30;3.70;99.90
43227;DHT22;28839;52.404;9.808;2023-11-21T22:34:25;3.60;99.90
43227;DHT22;28839;52.404;9.808;2023-11-21T22:41:25;3.40;99.90
43227;DHT22;28839;52.404;9.808;2023-11-21T22:48:19;3.40;99.90
43227;DHT22;28839;52.404;9.808;2023-11-21T22:55:14;3.30;99.90
43227;DHT22;28839;52.404;9.808;2023-11-21T23:02:08;3.20;99.90
43227;DHT22;28839;52.404;9.808;2023-11-21T23:09:02;3.00;99.90
43227;DHT22;28839;52.404;9.808;2023-11-21T23:15:57;3.00;99.90
43227;DHT22;28839;52.404;9.808;2023-11-21T23:22:51;2.90;99.90
43227;DHT22;28839;52.404;9.808;2023-11-21T23:29:45;2.80;99.90
43227;DHT22;28839;52.404;9.808;2023-11-21T23:36:43;2.80;99.90
43227;DHT22;28839;52.404;9.808;2023-11-21T23:43:38;2.60;99.90
43227;DHT22;28839;52.404;9.808;2023-11-21T23:50:31;2.40;99.90
43227;DHT22;28839;52.404;9.808;2023-11-21T23:57:27;2.30;99.90
